sensor_id;sensor_type;location;lat;lon;timestamp;P1;durP1;ratioP1;P2;durP2;ratioP2
52322;SDS011;38263;52.920;6.238;2022-10-16T00:01:47;4.05;;;1.88;;
52322;SDS011;38263;52.920;6.238;2022-10-16T00:04:13;6.88;;;1.90;;
52322;SDS011;38263;52.920;6.238;2022-10-16T00:06:38;3.67;;;1.95;;
52322;SDS011;38263;52.920;6.238;2022-10-16T00:09:04;6.10;;;1.77;;
52322;SDS011;38263;52.920;6.238;2022-10-16T00:11:32;5.85;;;1.77;;
52322;SDS011;38263;52.920;6.238;2022-10-16T00:14:01;9.52;;;2.20;;
52322;SDS011;38263;52.920;6.238;2022-10-16T00:16:29;12.05;;;2.42;;
52322;SDS011;38263;52.920;6.238;2022-10-16T00:18:56;6.32;;;2.03;;
52322;SDS011;38263;52.920;6.238;2022-10-16T00:21:22;5.15;;;1.60;;
52322;SDS011;38263;52.920;6.238;2022-10-16T00:23:50;4.90;;;1.60;;
52322;SDS011;38263;52.920;6.238;2022-10-16T00:26:17;5.30;;;1.98;;
52322;SDS011;38263;52.920;6.238;2022-10-16T00:28:45;7.65;;;1.45;;
52322;SDS011;38263;52.920;6.238;2022-10-16T00:31:15;5.60;;;1.48;;
52322;SDS011;38263;52.920;6.238;2022-10-16T00:33:41;4.45;;;2.03;;
52322;SDS011;38263;52.920;6.238;2022-10-16T00:36:08;5.82;;;1.73;;
52322;SDS011;38263;52.920;6.238;2022-10-16T00:38:36;5.18;;;2.38;;
52322;SDS011;38263;52.920;6.238;2022-10-16T00:41:02;5.20;;;1.90;;
52322;SDS011;38263;52.920;6.238;2022-10-16T00:43:33;5.32;;;1.80;;
52322;SDS011;38263;52.920;6.238;2022-10-16T00:46:02;7.18;;;1.92;;
52322;SDS011;38263;52.920;6.238;2022-10-16T00:48:30;7.95;;;2.58;;
52322;SDS011;38263;52.920;6.238;2022-10-16T00:50:56;5.60;;;1.55;;
52322;SDS011;38263;52.920;6.238;2022-10-16T00:53:23;5.25;;;1.70;;
52322;SDS011;38263;52.920;6.238;2022-10-16T00:55:50;7.78;;;2.70;;
52322;SDS011;38263;52.920;6.238;2022-10-16T00:58:16;6.50;;;2.00;;
52322;SDS011;38263;52.920;6.238;2022-10-16T01:00:42;5.70;;;1.90;;
52322;SDS011;38263;52.920;6.238;2022-10-16T01:06:43;6.78;;;1.92;;
52322;SDS011;38263;52.920;6.238;2022-10-16T01:11:33;7.10;;;1.85;;
52322;SDS011;38263;52.920;6.238;2022-10-16T01:14:19;8.38;;;1.92;;
52322;SDS011;38263;52.920;6.238;2022-10-16T01:16:54;4.90;;;1.48;;
52322;SDS011;38263;52.920;6.238;2022-10-16T01:22:35;3.88;;;1.80;;
52322;SDS011;38263;52.920;6.238;2022-10-16T01:25:25;7.30;;;1.80;;
52322;SDS011;38263;52.920;6.238;2022-10-16T01:28:04;5.07;;;1.83;;
52322;SDS011;38263;52.920;6.238;2022-10-16T01:30:34;8.75;;;2.03;;
52322;SDS011;38263;52.920;6.238;2022-10-16T01:33:23;4.57;;;1.23;;
52322;SDS011;38263;52.920;6.238;2022-10-16T01:35:53;6.70;;;2.42;;
52322;SDS011;38263;52.920;6.238;2022-10-16T01:38:30;4.03;;;2.03;;
52322;SDS011;38263;52.920;6.238;2022-10-16T01:41:14;3.20;;;1.45;;
52322;SDS011;38263;52.920;6.238;2022-10-16T01:43:46;3.25;;;1.60;;
52322;SDS011;38263;52.920;6.238;2022-10-16T01:46:18;6.55;;;1.58;;
52322;SDS011;38263;52.920;6.238;2022-10-16T01:48:46;5.05;;;1.70;;
52322;SDS011;38263;52.920;6.238;2022-10-16T01:51:13;8.02;;;1.50;;
52322;SDS011;38263;52.920;6.238;2022-10-16T01:53:40;3.10;;;1.77;;
52322;SDS011;38263;52.920;6.238;2022-10-16T01:56:09;4.93;;;1.70;;
52322;SDS011;38263;52.920;6.238;2022-10-16T01:58:40;3.25;;;1.33;;
52322;SDS011;38263;52.920;6.238;2022-10-16T02:01:10;4.20;;;1.88;;
52322;SDS011;38263;52.920;6.238;2022-10-16T02:03:39;3.45;;;1.40;;
52322;SDS011;38263;52.920;6.238;2022-10-16T02:06:07;4.60;;;1.60;;
52322;SDS011;38263;52.920;6.238;2022-10-16T02:08:33;3.30;;;2.10;;
52322;SDS011;38263;52.920;6.238;2022-10-16T02:10:59;3.75;;;1.40;;
52322;SDS011;38263;52.920;6.238;2022-10-16T02:13:33;3.90;;;1.42;;
52322;SDS011;38263;52.920;6.238;2022-10-16T02:16:06;6.03;;;1.75;;
52322;SDS011;38263;52.920;6.238;2022-10-16T02:18:32;2.88;;;1.40;;
52322;SDS011;38263;52.920;6.238;2022-10-16T02:21:02;4.95;;;1.30;;
52322;SDS011;38263;52.920;6.238;2022-10-16T02:23:51;7.07;;;1.55;;
52322;SDS011;38263;52.920;6.238;2022-10-16T02:26:38;2.13;;;1.50;;
52322;SDS011;38263;52.920;6.238;2022-10-16T02:29:16;10.13;;;2.22;;
52322;SDS011;38263;52.920;6.238;2022-10-16T02:31:48;3.35;;;1.42;;
52322;SDS011;38263;52.920;6.238;2022-10-16T02:34:17;6.53;;;1.60;;
52322;SDS011;38263;52.920;6.238;2022-10-16T02:36:45;5.22;;;2.00;;
52322;SDS011;38263;52.920;6.238;2022-10-16T02:39:13;4.10;;;1.75;;
52322;SDS011;38263;52.920;6.238;2022-10-16T02:41:40;6.80;;;1.63;;
52322;SDS011;38263;52.920;6.238;2022-10-16T02:44:06;3.40;;;1.52;;
52322;SDS011;38263;52.920;6.238;2022-10-16T02:46:31;7.32;;;2.03;;
52322;SDS011;38263;52.920;6.238;2022-10-16T02:48:57;3.53;;;1.90;;
52322;SDS011;38263;52.920;6.238;2022-10-16T02:51:22;5.70;;;1.85;;
52322;SDS011;38263;52.920;6.238;2022-10-16T02:53:48;3.13;;;1.65;;
52322;SDS011;38263;52.920;6.238;2022-10-16T02:56:13;3.60;;;1.38;;
52322;SDS011;38263;52.920;6.238;2022-10-16T02:58:39;4.20;;;1.85;;
52322;SDS011;38263;52.920;6.238;2022-10-16T03:01:04;3.58;;;1.48;;
52322;SDS011;38263;52.920;6.238;2022-10-16T03:03:30;5.65;;;2.05;;
52322;SDS011;38263;52.920;6.238;2022-10-16T03:05:55;2.20;;;1.70;;
52322;SDS011;38263;52.920;6.238;2022-10-16T03:08:21;5.63;;;1.52;;
52322;SDS011;38263;52.920;6.238;2022-10-16T03:10:49;4.68;;;1.50;;
52322;SDS011;38263;52.920;6.238;2022-10-16T03:13:15;5.07;;;1.70;;
52322;SDS011;38263;52.920;6.238;2022-10-16T03:15:41;4.35;;;1.63;;
52322;SDS011;38263;52.920;6.238;2022-10-16T03:18:06;4.53;;;1.70;;
52322;SDS011;38263;52.920;6.238;2022-10-16T03:20:32;5.63;;;1.50;;
52322;SDS011;38263;52.920;6.238;2022-10-16T03:22:57;7.53;;;1.70;;
52322;SDS011;38263;52.920;6.238;2022-10-16T03:25:23;4.30;;;1.88;;
52322;SDS011;38263;52.920;6.238;2022-10-16T03:27:49;5.13;;;2.22;;
52322;SDS011;38263;52.920;6.238;2022-10-16T03:30:14;9.18;;;1.70;;
52322;SDS011;38263;52.920;6.238;2022-10-16T03:32:41;3.13;;;1.60;;
52322;SDS011;38263;52.920;6.238;2022-10-16T03:35:08;2.60;;;1.67;;
52322;SDS011;38263;52.920;6.238;2022-10-16T03:37:34;4.45;;;1.58;;
52322;SDS011;38263;52.920;6.238;2022-10-16T03:39:59;6.10;;;1.60;;
52322;SDS011;38263;52.920;6.238;2022-10-16T03:42:25;5.32;;;1.75;;
52322;SDS011;38263;52.920;6.238;2022-10-16T03:44:50;5.57;;;1.90;;
52322;SDS011;38263;52.920;6.238;2022-10-16T03:47:16;5.80;;;2.30;;
52322;SDS011;38263;52.920;6.238;2022-10-16T03:49:45;3.33;;;1.98;;
52322;SDS011;38263;52.920;6.238;2022-10-16T03:52:11;3.55;;;1.80;;
52322;SDS011;38263;52.920;6.238;2022-10-16T03:54:36;4.70;;;1.83;;
52322;SDS011;38263;52.920;6.238;2022-10-16T03:57:02;3.90;;;1.70;;
52322;SDS011;38263;52.920;6.238;2022-10-16T03:59:27;4.65;;;2.28;;
52322;SDS011;38263;52.920;6.238;2022-10-16T04:01:53;4.45;;;1.77;;
52322;SDS011;38263;52.920;6.238;2022-10-16T04:04:18;3.22;;;1.85;;
52322;SDS011;38263;52.920;6.238;2022-10-16T04:06:44;4.45;;;1.92;;
52322;SDS011;38263;52.920;6.238;2022-10-16T04:09:09;2.97;;;1.55;;
52322;SDS011;38263;52.920;6.238;2022-10-16T04:11:35;6.80;;;2.45;;
52322;SDS011;38263;52.920;6.238;2022-10-16T04:14:01;3.55;;;2.40;;
52322;SDS011;38263;52.920;6.238;2022-10-16T04:16:26;4.97;;;2.22;;
52322;SDS011;38263;52.920;6.238;2022-10-16T04:18:52;5.72;;;2.00;;
52322;SDS011;38263;52.920;6.238;2022-10-16T04:21:17;3.63;;;1.85;;
52322;SDS011;38263;52.920;6.238;2022-10-16T04:23:43;6.13;;;2.20;;
52322;SDS011;38263;52.920;6.238;2022-10-16T04:26:08;4.32;;;1.70;;
52322;SDS011;38263;52.920;6.238;2022-10-16T04:28:35;3.90;;;1.67;;
52322;SDS011;38263;52.920;6.238;2022-10-16T04:31:03;3.55;;;1.77;;
52322;SDS011;38263;52.920;6.238;2022-10-16T04:33:29;4.60;;;1.80;;
52322;SDS011;38263;52.920;6.238;2022-10-16T04:35:58;5.03;;;2.33;;
52322;SDS011;38263;52.920;6.238;2022-10-16T04:38:24;3.45;;;1.85;;
52322;SDS011;38263;52.920;6.238;2022-10-16T04:40:50;7.90;;;1.98;;
52322;SDS011;38263;52.920;6.238;2022-10-16T04:43:16;7.47;;;2.13;;
52322;SDS011;38263;52.920;6.238;2022-10-16T04:45:42;4.60;;;2.28;;
52322;SDS011;38263;52.920;6.238;2022-10-16T04:48:08;3.47;;;2.00;;
52322;SDS011;38263;52.920;6.238;2022-10-16T04:50:34;5.68;;;2.15;;
52322;SDS011;38263;52.920;6.238;2022-10-16T04:52:59;4.60;;;2.47;;
52322;SDS011;38263;52.920;6.238;2022-10-16T04:55:25;5.28;;;1.80;;
52322;SDS011;38263;52.920;6.238;2022-10-16T04:57:50;6.00;;;2.10;;
52322;SDS011;38263;52.920;6.238;2022-10-16T05:00:16;6.35;;;2.50;;
52322;SDS011;38263;52.920;6.238;2022-10-16T05:02:41;4.93;;;2.00;;
52322;SDS011;38263;52.920;6.238;2022-10-16T05:05:07;3.90;;;2.17;;
52322;SDS011;38263;52.920;6.238;2022-10-16T05:07:33;5.85;;;2.55;;
52322;SDS011;38263;52.920;6.238;2022-10-16T05:09:58;4.22;;;2.47;;
52322;SDS011;38263;52.920;6.238;2022-10-16T05:12:24;3.80;;;2.20;;
52322;SDS011;38263;52.920;6.238;2022-10-16T05:14:50;6.80;;;2.33;;
52322;SDS011;38263;52.920;6.238;2022-10-16T05:17:15;5.00;;;2.65;;
52322;SDS011;38263;52.920;6.238;2022-10-16T05:19:41;7.65;;;3.28;;
52322;SDS011;38263;52.920;6.238;2022-10-16T05:22:06;4.57;;;2.47;;
52322;SDS011;38263;52.920;6.238;2022-10-16T05:24:32;4.72;;;2.72;;
52322;SDS011;38263;52.920;6.238;2022-10-16T05:26:58;6.85;;;2.75;;
52322;SDS011;38263;52.920;6.238;2022-10-16T05:29:23;6.47;;;2.50;;
52322;SDS011;38263;52.920;6.238;2022-10-16T05:31:50;4.10;;;2.50;;
52322;SDS011;38263;52.920;6.238;2022-10-16T05:34:16;3.78;;;2.50;;
52322;SDS011;38263;52.920;6.238;2022-10-16T05:36:42;8.68;;;4.40;;
52322;SDS011;38263;52.920;6.238;2022-10-16T05:39:10;5.35;;;2.65;;
52322;SDS011;38263;52.920;6.238;2022-10-16T05:41:36;7.00;;;2.47;;
52322;SDS011;38263;52.920;6.238;2022-10-16T05:44:05;6.32;;;2.80;;
52322;SDS011;38263;52.920;6.238;2022-10-16T05:46:31;4.82;;;2.70;;
52322;SDS011;38263;52.920;6.238;2022-10-16T05:48:57;7.07;;;3.08;;
52322;SDS011;38263;52.920;6.238;2022-10-16T05:51:23;7.90;;;3.17;;
52322;SDS011;38263;52.920;6.238;2022-10-16T05:53:49;6.88;;;2.65;;
52322;SDS011;38263;52.920;6.238;2022-10-16T05:56:14;5.88;;;3.10;;
52322;SDS011;38263;52.920;6.238;2022-10-16T05:58:41;4.65;;;2.47;;
52322;SDS011;38263;52.920;6.238;2022-10-16T06:01:08;4.13;;;2.80;;
52322;SDS011;38263;52.920;6.238;2022-10-16T06:03:42;3.35;;;2.38;;
52322;SDS011;38263;52.920;6.238;2022-10-16T06:08:34;5.13;;;2.85;;
52322;SDS011;38263;52.920;6.238;2022-10-16T06:11:04;7.13;;;3.55;;
52322;SDS011;38263;52.920;6.238;2022-10-16T06:13:30;7.30;;;2.58;;
52322;SDS011;38263;52.920;6.238;2022-10-16T06:15:57;5.53;;;3.35;;
52322;SDS011;38263;52.920;6.238;2022-10-16T06:18:24;4.53;;;2.90;;
52322;SDS011;38263;52.920;6.238;2022-10-16T06:20:49;4.28;;;2.65;;
52322;SDS011;38263;52.920;6.238;2022-10-16T06:23:15;3.92;;;2.58;;
52322;SDS011;38263;52.920;6.238;2022-10-16T06:25:41;6.60;;;2.53;;
52322;SDS011;38263;52.920;6.238;2022-10-16T06:28:06;3.92;;;2.72;;
52322;SDS011;38263;52.920;6.238;2022-10-16T06:30:32;5.80;;;2.55;;
52322;SDS011;38263;52.920;6.238;2022-10-16T06:32:57;6.22;;;2.63;;
52322;SDS011;38263;52.920;6.238;2022-10-16T06:35:23;6.75;;;2.85;;
52322;SDS011;38263;52.920;6.238;2022-10-16T06:37:48;6.85;;;2.58;;
52322;SDS011;38263;52.920;6.238;2022-10-16T06:40:14;4.60;;;2.28;;
52322;SDS011;38263;52.920;6.238;2022-10-16T06:42:40;4.03;;;2.70;;
52322;SDS011;38263;52.920;6.238;2022-10-16T06:45:06;4.40;;;2.42;;
52322;SDS011;38263;52.920;6.238;2022-10-16T06:47:32;5.45;;;2.55;;
52322;SDS011;38263;52.920;6.238;2022-10-16T06:49:58;3.50;;;2.50;;
52322;SDS011;38263;52.920;6.238;2022-10-16T06:52:23;9.68;;;3.40;;
52322;SDS011;38263;52.920;6.238;2022-10-16T06:54:49;7.90;;;2.55;;
52322;SDS011;38263;52.920;6.238;2022-10-16T06:57:15;5.90;;;3.00;;
52322;SDS011;38263;52.920;6.238;2022-10-16T06:59:41;5.70;;;3.40;;
52322;SDS011;38263;52.920;6.238;2022-10-16T07:02:07;4.63;;;2.45;;
52322;SDS011;38263;52.920;6.238;2022-10-16T07:04:35;4.68;;;2.38;;
52322;SDS011;38263;52.920;6.238;2022-10-16T07:07:01;5.25;;;2.20;;
52322;SDS011;38263;52.920;6.238;2022-10-16T07:09:27;5.18;;;2.30;;
52322;SDS011;38263;52.920;6.238;2022-10-16T07:11:52;4.00;;;2.20;;
52322;SDS011;38263;52.920;6.238;2022-10-16T07:14:18;6.90;;;2.20;;
52322;SDS011;38263;52.920;6.238;2022-10-16T07:16:46;3.92;;;2.40;;
52322;SDS011;38263;52.920;6.238;2022-10-16T07:19:12;4.93;;;2.30;;
52322;SDS011;38263;52.920;6.238;2022-10-16T07:21:39;5.13;;;1.95;;
52322;SDS011;38263;52.920;6.238;2022-10-16T07:24:06;4.75;;;2.08;;
52322;SDS011;38263;52.920;6.238;2022-10-16T07:26:36;3.70;;;2.40;;
52322;SDS011;38263;52.920;6.238;2022-10-16T07:29:04;5.15;;;2.63;;
52322;SDS011;38263;52.920;6.238;2022-10-16T07:31:30;6.65;;;2.28;;
52322;SDS011;38263;52.920;6.238;2022-10-16T07:33:57;9.50;;;3.38;;
52322;SDS011;38263;52.920;6.238;2022-10-16T07:36:23;3.67;;;1.77;;
52322;SDS011;38263;52.920;6.238;2022-10-16T07:38:49;5.60;;;2.03;;
52322;SDS011;38263;52.920;6.238;2022-10-16T07:41:16;6.68;;;1.60;;
52322;SDS011;38263;52.920;6.238;2022-10-16T07:43:47;5.50;;;2.20;;
52322;SDS011;38263;52.920;6.238;2022-10-16T07:46:14;3.88;;;1.98;;
52322;SDS011;38263;52.920;6.238;2022-10-16T07:48:41;8.07;;;1.98;;
52322;SDS011;38263;52.920;6.238;2022-10-16T07:51:10;4.80;;;1.88;;
52322;SDS011;38263;52.920;6.238;2022-10-16T07:53:37;6.25;;;1.70;;
52322;SDS011;38263;52.920;6.238;2022-10-16T07:56:04;3.75;;;1.48;;
52322;SDS011;38263;52.920;6.238;2022-10-16T07:58:31;3.60;;;1.38;;
52322;SDS011;38263;52.920;6.238;2022-10-16T08:00:57;7.10;;;1.70;;
52322;SDS011;38263;52.920;6.238;2022-10-16T08:03:24;9.98;;;1.80;;
52322;SDS011;38263;52.920;6.238;2022-10-16T08:05:50;4.35;;;1.33;;
52322;SDS011;38263;52.920;6.238;2022-10-16T08:08:16;5.95;;;1.70;;
52322;SDS011;38263;52.920;6.238;2022-10-16T08:10:43;5.93;;;1.58;;
52322;SDS011;38263;52.920;6.238;2022-10-16T08:13:09;2.90;;;1.27;;
52322;SDS011;38263;52.920;6.238;2022-10-16T08:15:35;6.15;;;1.40;;
52322;SDS011;38263;52.920;6.238;2022-10-16T08:18:01;4.20;;;1.45;;
52322;SDS011;38263;52.920;6.238;2022-10-16T08:20:29;3.97;;;1.10;;
52322;SDS011;38263;52.920;6.238;2022-10-16T08:22:55;3.65;;;1.40;;
52322;SDS011;38263;52.920;6.238;2022-10-16T08:25:21;4.30;;;1.30;;
52322;SDS011;38263;52.920;6.238;2022-10-16T08:27:48;3.58;;;1.10;;
52322;SDS011;38263;52.920;6.238;2022-10-16T08:30:14;2.22;;;1.30;;
52322;SDS011;38263;52.920;6.238;2022-10-16T08:32:41;4.80;;;1.40;;
52322;SDS011;38263;52.920;6.238;2022-10-16T08:35:07;3.92;;;1.55;;
52322;SDS011;38263;52.920;6.238;2022-10-16T08:37:34;5.32;;;1.33;;
52322;SDS011;38263;52.920;6.238;2022-10-16T08:39:59;5.10;;;1.80;;
52322;SDS011;38263;52.920;6.238;2022-10-16T08:42:41;3.28;;;1.13;;
52322;SDS011;38263;52.920;6.238;2022-10-16T08:48:08;3.38;;;1.20;;
52322;SDS011;38263;52.920;6.238;2022-10-16T08:50:42;4.45;;;1.33;;
52322;SDS011;38263;52.920;6.238;2022-10-16T08:53:13;7.15;;;2.60;;
52322;SDS011;38263;52.920;6.238;2022-10-16T08:55:50;6.90;;;1.48;;
52322;SDS011;38263;52.920;6.238;2022-10-16T08:58:27;3.72;;;1.10;;
52322;SDS011;38263;52.920;6.238;2022-10-16T09:00:56;3.88;;;1.20;;
52322;SDS011;38263;52.920;6.238;2022-10-16T09:06:33;5.55;;;1.13;;
52322;SDS011;38263;52.920;6.238;2022-10-16T09:09:19;4.05;;;1.00;;
52322;SDS011;38263;52.920;6.238;2022-10-16T09:17:57;8.55;;;1.42;;
52322;SDS011;38263;52.920;6.238;2022-10-16T09:23:19;4.53;;;1.27;;
52322;SDS011;38263;52.920;6.238;2022-10-16T09:25:52;6.27;;;1.27;;
52322;SDS011;38263;52.920;6.238;2022-10-16T09:28:19;5.38;;;1.02;;
52322;SDS011;38263;52.920;6.238;2022-10-16T09:30:45;5.03;;;0.93;;
52322;SDS011;38263;52.920;6.238;2022-10-16T09:33:11;5.60;;;1.15;;
52322;SDS011;38263;52.920;6.238;2022-10-16T09:35:39;8.05;;;0.73;;
52322;SDS011;38263;52.920;6.238;2022-10-16T09:38:09;6.80;;;1.17;;
52322;SDS011;38263;52.920;6.238;2022-10-16T09:40:50;6.47;;;1.00;;
52322;SDS011;38263;52.920;6.238;2022-10-16T09:44:17;9.32;;;1.00;;
52322;SDS011;38263;52.920;6.238;2022-10-16T09:47:00;4.95;;;0.90;;
52322;SDS011;38263;52.920;6.238;2022-10-16T09:49:02;4.90;;;1.10;;
52322;SDS011;38263;52.920;6.238;2022-10-16T09:56:34;7.45;;;0.88;;
52322;SDS011;38263;52.920;6.238;2022-10-16T10:01:41;8.05;;;1.02;;
52322;SDS011;38263;52.920;6.238;2022-10-16T10:04:12;8.65;;;1.67;;
52322;SDS011;38263;52.920;6.238;2022-10-16T10:06:45;10.00;;;1.40;;
52322;SDS011;38263;52.920;6.238;2022-10-16T10:14:27;9.63;;;2.15;;
52322;SDS011;38263;52.920;6.238;2022-10-16T10:17:22;9.45;;;1.20;;
52322;SDS011;38263;52.920;6.238;2022-10-16T10:19:54;9.88;;;1.83;;
52322;SDS011;38263;52.920;6.238;2022-10-16T10:33:22;10.77;;;1.40;;
52322;SDS011;38263;52.920;6.238;2022-10-16T10:38:39;8.00;;;1.70;;
52322;SDS011;38263;52.920;6.238;2022-10-16T10:44:18;10.63;;;2.00;;
52322;SDS011;38263;52.920;6.238;2022-10-16T10:46:50;13.38;;;3.58;;
52322;SDS011;38263;52.920;6.238;2022-10-16T10:52:05;6.32;;;1.33;;
52322;SDS011;38263;52.920;6.238;2022-10-16T10:55:10;11.00;;;2.45;;
52322;SDS011;38263;52.920;6.238;2022-10-16T10:58:08;12.82;;;1.90;;
52322;SDS011;38263;52.920;6.238;2022-10-16T11:01:13;7.00;;;1.52;;
52322;SDS011;38263;52.920;6.238;2022-10-16T11:03:53;12.52;;;1.35;;
52322;SDS011;38263;52.920;6.238;2022-10-16T11:06:44;11.68;;;1.55;;
52322;SDS011;38263;52.920;6.238;2022-10-16T11:09:15;10.65;;;2.08;;
52322;SDS011;38263;52.920;6.238;2022-10-16T11:12:16;13.80;;;2.53;;
52322;SDS011;38263;52.920;6.238;2022-10-16T11:15:54;10.70;;;2.00;;
52322;SDS011;38263;52.920;6.238;2022-10-16T11:18:38;10.68;;;2.00;;
52322;SDS011;38263;52.920;6.238;2022-10-16T11:20:59;7.82;;;2.38;;
52322;SDS011;38263;52.920;6.238;2022-10-16T11:23:37;8.38;;;2.08;;
52322;SDS011;38263;52.920;6.238;2022-10-16T11:26:05;10.05;;;1.85;;
52322;SDS011;38263;52.920;6.238;2022-10-16T11:28:45;11.35;;;2.38;;
52322;SDS011;38263;52.920;6.238;2022-10-16T11:31:19;11.60;;;1.58;;
52322;SDS011;38263;52.920;6.238;2022-10-16T11:34:01;7.28;;;1.67;;
52322;SDS011;38263;52.920;6.238;2022-10-16T11:36:53;10.65;;;2.20;;
52322;SDS011;38263;52.920;6.238;2022-10-16T11:39:30;12.30;;;2.90;;
52322;SDS011;38263;52.920;6.238;2022-10-16T11:42:05;9.48;;;2.17;;
52322;SDS011;38263;52.920;6.238;2022-10-16T11:45:07;15.90;;;2.50;;
52322;SDS011;38263;52.920;6.238;2022-10-16T11:53:34;8.13;;;2.30;;
52322;SDS011;38263;52.920;6.238;2022-10-16T11:56:07;12.52;;;2.45;;
52322;SDS011;38263;52.920;6.238;2022-10-16T11:58:37;16.75;;;1.88;;
52322;SDS011;38263;52.920;6.238;2022-10-16T12:01:26;9.13;;;1.35;;
52322;SDS011;38263;52.920;6.238;2022-10-16T12:04:22;9.82;;;2.10;;
52322;SDS011;38263;52.920;6.238;2022-10-16T12:06:58;11.45;;;2.10;;
52322;SDS011;38263;52.920;6.238;2022-10-16T12:09:31;6.35;;;1.27;;
52322;SDS011;38263;52.920;6.238;2022-10-16T12:11:59;10.48;;;2.00;;
52322;SDS011;38263;52.920;6.238;2022-10-16T12:14:40;14.68;;;2.08;;
52322;SDS011;38263;52.920;6.238;2022-10-16T12:17:22;14.90;;;3.25;;
52322;SDS011;38263;52.920;6.238;2022-10-16T12:20:12;19.67;;;2.53;;
52322;SDS011;38263;52.920;6.238;2022-10-16T12:22:48;8.60;;;2.03;;
52322;SDS011;38263;52.920;6.238;2022-10-16T12:25:21;11.95;;;1.90;;
52322;SDS011;38263;52.920;6.238;2022-10-16T12:28:02;10.63;;;1.50;;
52322;SDS011;38263;52.920;6.238;2022-10-16T12:30:34;12.68;;;2.17;;
52322;SDS011;38263;52.920;6.238;2022-10-16T12:33:02;14.60;;;2.53;;
52322;SDS011;38263;52.920;6.238;2022-10-16T12:35:31;12.18;;;2.72;;
52322;SDS011;38263;52.920;6.238;2022-10-16T12:40:44;6.28;;;1.45;;
52322;SDS011;38263;52.920;6.238;2022-10-16T12:46:33;11.65;;;2.60;;
52322;SDS011;38263;52.920;6.238;2022-10-16T12:52:03;9.75;;;2.55;;
52322;SDS011;38263;52.920;6.238;2022-10-16T12:54:30;15.98;;;3.05;;
52322;SDS011;38263;52.920;6.238;2022-10-16T13:22:11;13.30;;;2.58;;
52322;SDS011;38263;52.920;6.238;2022-10-16T13:27:52;10.50;;;1.35;;
52322;SDS011;38263;52.920;6.238;2022-10-16T13:33:00;5.13;;;1.40;;
52322;SDS011;38263;52.920;6.238;2022-10-16T13:35:29;11.30;;;1.80;;
52322;SDS011;38263;52.920;6.238;2022-10-16T13:38:18;18.02;;;3.03;;
52322;SDS011;38263;52.920;6.238;2022-10-16T13:40:52;16.00;;;2.17;;
52322;SDS011;38263;52.920;6.238;2022-10-16T13:45:53;14.38;;;1.90;;
52322;SDS011;38263;52.920;6.238;2022-10-16T13:48:27;13.60;;;1.75;;
52322;SDS011;38263;52.920;6.238;2022-10-16T13:50:58;13.63;;;1.83;;
52322;SDS011;38263;52.920;6.238;2022-10-16T13:53:44;11.63;;;1.88;;
52322;SDS011;38263;52.920;6.238;2022-10-16T13:56:11;14.20;;;1.60;;
52322;SDS011;38263;52.920;6.238;2022-10-16T13:58:39;9.65;;;2.92;;
52322;SDS011;38263;52.920;6.238;2022-10-16T14:01:06;15.27;;;1.83;;
52322;SDS011;38263;52.920;6.238;2022-10-16T14:03:48;14.45;;;1.95;;
52322;SDS011;38263;52.920;6.238;2022-10-16T14:06:16;7.40;;;1.45;;
52322;SDS011;38263;52.920;6.238;2022-10-16T14:08:50;13.35;;;1.75;;
52322;SDS011;38263;52.920;6.238;2022-10-16T14:11:25;8.57;;;1.73;;
52322;SDS011;38263;52.920;6.238;2022-10-16T14:13:51;14.30;;;1.83;;
52322;SDS011;38263;52.920;6.238;2022-10-16T14:16:22;13.07;;;2.08;;
52322;SDS011;38263;52.920;6.238;2022-10-16T14:18:55;17.65;;;3.17;;
52322;SDS011;38263;52.920;6.238;2022-10-16T14:21:23;11.25;;;1.40;;
52322;SDS011;38263;52.920;6.238;2022-10-16T14:23:50;10.73;;;1.30;;
52322;SDS011;38263;52.920;6.238;2022-10-16T14:26:19;10.57;;;1.73;;
52322;SDS011;38263;52.920;6.238;2022-10-16T14:28:47;16.52;;;2.28;;
52322;SDS011;38263;52.920;6.238;2022-10-16T14:34:35;11.13;;;1.60;;
52322;SDS011;38263;52.920;6.238;2022-10-16T14:37:09;10.20;;;1.45;;
52322;SDS011;38263;52.920;6.238;2022-10-16T14:39:51;10.85;;;1.75;;
52322;SDS011;38263;52.920;6.238;2022-10-16T14:42:18;14.60;;;1.85;;
52322;SDS011;38263;52.920;6.238;2022-10-16T14:44:45;11.25;;;2.45;;
52322;SDS011;38263;52.920;6.238;2022-10-16T14:47:16;13.65;;;2.00;;
52322;SDS011;38263;52.920;6.238;2022-10-16T14:49:51;11.70;;;2.03;;
52322;SDS011;38263;52.920;6.238;2022-10-16T14:52:20;9.95;;;1.67;;
52322;SDS011;38263;52.920;6.238;2022-10-16T14:54:49;7.80;;;1.55;;
52322;SDS011;38263;52.920;6.238;2022-10-16T14:57:18;8.95;;;1.83;;
52322;SDS011;38263;52.920;6.238;2022-10-16T14:59:49;13.40;;;2.17;;
52322;SDS011;38263;52.920;6.238;2022-10-16T15:04:54;14.93;;;1.92;;
52322;SDS011;38263;52.920;6.238;2022-10-16T15:11:01;12.15;;;1.48;;
52322;SDS011;38263;52.920;6.238;2022-10-16T15:13:27;10.27;;;1.77;;
52322;SDS011;38263;52.920;6.238;2022-10-16T15:15:53;10.65;;;2.15;;
52322;SDS011;38263;52.920;6.238;2022-10-16T15:18:19;14.95;;;2.53;;
52322;SDS011;38263;52.920;6.238;2022-10-16T15:20:47;9.38;;;1.52;;
52322;SDS011;38263;52.920;6.238;2022-10-16T15:23:15;12.13;;;1.83;;
52322;SDS011;38263;52.920;6.238;2022-10-16T15:25:46;11.73;;;1.70;;
52322;SDS011;38263;52.920;6.238;2022-10-16T15:28:14;11.25;;;1.98;;
52322;SDS011;38263;52.920;6.238;2022-10-16T15:30:41;11.07;;;1.48;;
52322;SDS011;38263;52.920;6.238;2022-10-16T15:33:17;16.02;;;2.22;;
52322;SDS011;38263;52.920;6.238;2022-10-16T15:35:51;16.10;;;2.05;;
52322;SDS011;38263;52.920;6.238;2022-10-16T15:38:18;17.05;;;2.42;;
52322;SDS011;38263;52.920;6.238;2022-10-16T15:40:45;14.90;;;2.65;;
52322;SDS011;38263;52.920;6.238;2022-10-16T15:43:11;13.98;;;2.67;;
52322;SDS011;38263;52.920;6.238;2022-10-16T15:45:37;11.40;;;1.40;;
52322;SDS011;38263;52.920;6.238;2022-10-16T15:48:02;10.30;;;1.52;;
52322;SDS011;38263;52.920;6.238;2022-10-16T15:50:28;11.30;;;1.75;;
52322;SDS011;38263;52.920;6.238;2022-10-16T15:52:55;15.75;;;1.80;;
52322;SDS011;38263;52.920;6.238;2022-10-16T15:55:21;11.77;;;1.70;;
52322;SDS011;38263;52.920;6.238;2022-10-16T15:57:46;9.20;;;1.60;;
52322;SDS011;38263;52.920;6.238;2022-10-16T16:00:13;17.15;;;3.13;;
52322;SDS011;38263;52.920;6.238;2022-10-16T16:02:42;14.15;;;2.00;;
52322;SDS011;38263;52.920;6.238;2022-10-16T16:05:08;11.82;;;1.80;;
52322;SDS011;38263;52.920;6.238;2022-10-16T16:07:35;12.52;;;1.33;;
52322;SDS011;38263;52.920;6.238;2022-10-16T16:10:03;11.05;;;1.60;;
52322;SDS011;38263;52.920;6.238;2022-10-16T16:12:30;11.93;;;1.60;;
52322;SDS011;38263;52.920;6.238;2022-10-16T16:14:55;10.20;;;1.92;;
52322;SDS011;38263;52.920;6.238;2022-10-16T16:17:21;11.52;;;1.88;;
52322;SDS011;38263;52.920;6.238;2022-10-16T16:19:47;8.95;;;1.65;;
52322;SDS011;38263;52.920;6.238;2022-10-16T16:22:12;10.70;;;2.13;;
52322;SDS011;38263;52.920;6.238;2022-10-16T16:24:38;9.13;;;2.28;;
52322;SDS011;38263;52.920;6.238;2022-10-16T16:27:03;10.25;;;1.73;;
52322;SDS011;38263;52.920;6.238;2022-10-16T16:29:29;13.15;;;2.25;;
52322;SDS011;38263;52.920;6.238;2022-10-16T16:31:54;11.55;;;2.22;;
52322;SDS011;38263;52.920;6.238;2022-10-16T16:34:25;10.70;;;2.28;;
52322;SDS011;38263;52.920;6.238;2022-10-16T16:36:54;14.70;;;4.50;;
52322;SDS011;38263;52.920;6.238;2022-10-16T16:39:20;11.35;;;3.55;;
52322;SDS011;38263;52.920;6.238;2022-10-16T16:41:46;11.70;;;3.92;;
52322;SDS011;38263;52.920;6.238;2022-10-16T16:44:12;12.60;;;3.20;;
52322;SDS011;38263;52.920;6.238;2022-10-16T16:46:39;11.30;;;2.70;;
52322;SDS011;38263;52.920;6.238;2022-10-16T16:49:08;12.90;;;1.95;;
52322;SDS011;38263;52.920;6.238;2022-10-16T16:51:36;10.02;;;2.13;;
52322;SDS011;38263;52.920;6.238;2022-10-16T16:54:02;6.15;;;1.70;;
52322;SDS011;38263;52.920;6.238;2022-10-16T16:56:27;10.90;;;2.15;;